Time;durP1;ratioP1;P1;durP2;ratioP2;P2;SDS_P1;SDS_P2;PMS_P1;PMS_P2;Temp;Humidity;BMP_temperature;BMP_pressure;BME280_temperature;BME280_humidity;BME280_pressure;Samples;Min_cycle;Max_cycle;Signal;HPM_P1;HPM_P2
2023/05/13 05:02:23;;;;;;;5.10;2.92;;;12.50;99.90;;;;;;6606907;23;20053;-78
2023/05/13 05:05:25;;;;;;;5.10;2.88;;;12.40;99.90;;;;;;6223982;28;20053;-78
2023/05/13 05:08:28;;;;;;;7.97;2.97;;;12.50;99.90;;;;;;6223483;28;20053;-77
2023/05/13 05:11:30;;;;;;;5.68;2.67;;;12.50;99.90;;;;;;6224703;28;20061;-78
2023/05/13 05:14:32;;;;;;;4.28;2.85;;;12.50;99.90;;;;;;6222463;28;20041;-77
2023/05/13 05:17:35;;;;;;;4.68;2.90;;;12.50;99.90;;;;;;6225258;28;20042;-77
2023/05/13 05:20:38;;;;;;;5.22;3.13;;;12.40;99.90;;;;;;6225249;28;20046;-77
2023/05/13 05:23:40;;;;;;;5.63;2.90;;;12.20;99.90;;;;;;6226052;28;20130;-76
2023/05/13 05:26:41;;;;;;;5.38;3.10;;;12.40;99.90;;;;;;6222018;28;20046;-76
2023/05/13 05:29:43;;;;;;;6.88;3.30;;;12.10;99.90;;;;;;6204134;28;20487;-77
2023/05/13 05:32:47;;;;;;;5.72;3.20;;;12.20;99.90;;;;;;6218014;28;20046;-77
2023/05/13 05:35:49;;;;;;;9.90;3.38;;;12.10;99.90;;;;;;6221887;28;20053;-77
2023/05/13 05:38:50;;;;;;;6.25;3.30;;;12.30;99.90;;;;;;6224719;28;20042;-77
2023/05/13 05:41:53;;;;;;;5.15;3.30;;;12.30;99.90;;;;;;6223460;28;20045;-78
2023/05/13 05:44:55;;;;;;;7.07;3.40;;;12.40;99.90;;;;;;6229400;28;20410;-78
2023/05/13 05:47:58;;;;;;;8.05;3.88;;;12.50;99.90;;;;;;6232411;28;20057;-77
2023/05/13 05:51:00;;;;;;;6.97;3.90;;;12.50;99.90;;;;;;6223809;28;20049;-78
2023/05/13 05:54:02;;;;;;;6.07;3.80;;;12.40;99.90;;;;;;6220763;28;20050;-78
2023/05/13 05:57:04;;;;;;;8.70;4.20;;;12.60;99.90;;;;;;6221419;28;20050;-78
2023/05/13 06:00:09;;;;;;;9.35;4.05;;;12.30;99.90;;;;;;6221420;28;20586;-79
2023/05/13 06:03:12;;;;;;;7.97;3.97;;;12.40;99.90;;;;;;6221505;28;20050;-79
2023/05/13 06:06:14;;;;;;;6.38;3.60;;;12.30;99.90;;;;;;6222257;28;20081;-78
2023/05/13 06:09:16;;;;;;;7.90;3.97;;;12.30;99.90;;;;;;6224293;28;20046;-78
2023/05/13 06:12:18;;;;;;;9.43;3.83;;;12.30;99.90;;;;;;6222426;28;20719;-78
2023/05/13 06:15:19;;;;;;;7.40;3.67;;;12.40;99.90;;;;;;6224165;28;20068;-79
2023/05/13 06:18:23;;;;;;;6.20;3.80;;;12.30;99.90;;;;;;6224107;28;20038;-79
2023/05/13 06:21:25;;;;;;;9.73;3.72;;;12.50;99.90;;;;;;6221676;28;20046;-78
2023/05/13 06:24:26;;;;;;;6.35;3.50;;;12.60;99.90;;;;;;6221508;28;20053;-79
2023/05/13 06:27:28;;;;;;;6.53;3.70;;;12.40;99.90;;;;;;6221366;28;20046;-78
2023/05/13 06:30:30;;;;;;;7.00;3.53;;;12.50;99.90;;;;;;6227638;28;20494;-79
2023/05/13 06:33:33;;;;;;;7.10;3.88;;;12.70;99.90;;;;;;6224672;28;20473;-78
2023/05/13 06:36:35;;;;;;;6.97;3.78;;;12.70;99.90;;;;;;6222917;28;20046;-78
2023/05/13 06:39:38;;;;;;;9.10;4.22;;;12.70;99.90;;;;;;6222285;28;20487;-79
2023/05/13 06:42:40;;;;;;;7.60;3.70;;;12.50;99.90;;;;;;6223412;28;20479;-78
2023/05/13 06:45:41;;;;;;;7.00;4.00;;;12.60;99.90;;;;;;6223385;28;20046;-79
2023/05/13 06:48:45;;;;;;;6.47;3.88;;;12.60;99.90;;;;;;6229391;28;20467;-79
2023/05/13 06:51:47;;;;;;;8.32;4.07;;;12.80;99.90;;;;;;6248867;28;20045;-79
2023/05/13 06:54:48;;;;;;;6.07;3.95;;;12.70;99.90;;;;;;6225044;28;20046;-77
2023/05/13 06:57:51;;;;;;;6.70;3.88;;;12.70;99.90;;;;;;6224101;28;20494;-78
2023/05/13 07:00:53;;;;;;;7.15;4.22;;;12.60;99.90;;;;;;6222996;28;20050;-77
2023/05/13 07:03:57;;;;;;;8.02;4.35;;;12.60;99.90;;;;;;6222334;28;20042;-78
2023/05/13 07:06:58;;;;;;;6.22;3.97;;;12.60;99.90;;;;;;6209189;28;20053;-78
2023/05/13 07:10:00;;;;;;;7.82;4.43;;;12.90;99.90;;;;;;6223833;28;20046;-80
2023/05/13 07:13:02;;;;;;;7.55;4.47;;;12.90;99.90;;;;;;6217624;28;20418;-77
2023/05/13 07:16:05;;;;;;;7.72;4.30;;;12.60;99.90;;;;;;6222950;28;20054;-79
2023/05/13 07:19:08;;;;;;;6.32;4.13;;;12.60;99.90;;;;;;6223391;28;20058;-79
2023/05/13 07:22:10;;;;;;;7.50;4.43;;;13.00;99.90;;;;;;6223956;28;20599;-79
2023/05/13 07:25:12;;;;;;;9.80;4.63;;;13.20;99.90;;;;;;6214565;28;20053;-77
2023/05/13 07:28:14;;;;;;;9.73;4.97;;;13.10;99.90;;;;;;6202287;28;20050;-79
2023/05/13 07:31:16;;;;;;;7.13;4.72;;;13.10;99.90;;;;;;6209188;28;20050;-79
2023/05/13 07:34:20;;;;;;;8.63;4.82;;;13.20;99.90;;;;;;6222387;28;20050;-78
2023/05/13 07:37:22;;;;;;;8.77;4.93;;;13.40;99.90;;;;;;6221671;28;20192;-80
2023/05/13 07:40:24;;;;;;;8.40;4.22;;;13.50;99.90;;;;;;6221865;28;20046;-79
2023/05/13 07:43:26;;;;;;;6.68;4.00;;;13.40;99.90;;;;;;6223203;28;20432;-78
2023/05/13 07:46:28;;;;;;;9.38;4.53;;;13.40;99.90;;;;;;6223281;28;20050;-78
2023/05/13 07:49:31;;;;;;;7.82;3.83;;;13.40;99.90;;;;;;6223380;28;20399;-78
2023/05/13 07:52:33;;;;;;;7.50;3.97;;;13.40;99.90;;;;;;6239643;28;20056;-78
2023/05/13 07:55:35;;;;;;;5.28;3.25;;;13.30;99.90;;;;;;6243493;28;20046;-78
2023/05/13 07:58:37;;;;;;;6.40;3.92;;;13.30;99.90;;;;;;6230378;28;20041;-78
2023/05/13 08:01:39;;;;;;;8.32;4.03;;;13.40;99.90;;;;;;6252339;28;20060;-78
2023/05/13 08:04:42;;;;;;;7.72;3.90;;;13.50;99.90;;;;;;6231364;28;20391;-80
2023/05/13 08:07:44;;;;;;;7.50;4.05;;;13.50;99.90;;;;;;6227887;28;20487;-79
2023/05/13 08:10:46;;;;;;;7.45;4.50;;;13.50;99.90;;;;;;6225213;28;20050;-78
2023/05/13 08:13:47;;;;;;;10.40;4.15;;;13.50;99.90;;;;;;6227870;28;20048;-78
2023/05/13 08:16:49;;;;;;;8.18;4.45;;;13.50;99.90;;;;;;6227657;28;20046;-77
2023/05/13 08:19:52;;;;;;;8.52;4.72;;;13.60;99.90;;;;;;6227235;28;20049;-77
2023/05/13 08:22:54;;;;;;;6.88;4.55;;;13.50;99.90;;;;;;6226984;28;20053;-78
2023/05/13 08:25:57;;;;;;;8.07;4.45;;;13.60;99.90;;;;;;6228491;28;20038;-77
2023/05/13 08:28:59;;;;;;;8.63;4.77;;;13.60;99.90;;;;;;6222883;28;20407;-77
2023/05/13 08:32:01;;;;;;;8.25;4.93;;;13.70;99.90;;;;;;6227287;28;20053;-77
2023/05/13 08:35:04;;;;;;;10.77;5.22;;;13.70;99.90;;;;;;6226990;28;20053;-76
2023/05/13 08:38:06;;;;;;;8.25;4.72;;;13.40;99.90;;;;;;6227001;28;20411;-77
2023/05/13 08:41:09;;;;;;;9.10;5.28;;;13.50;99.90;;;;;;6224313;28;20054;-79
2023/05/13 08:44:13;;;;;;;7.85;4.65;;;13.50;99.90;;;;;;6222996;28;20050;-79
2023/05/13 08:47:26;;;;;;;7.68;4.28;;;13.60;99.90;;;;;;6226124;28;20053;-79
2023/05/13 08:50:29;;;;;;;;;;;13.80;99.90;;;;;;6226650;28;20091;-79
2023/05/13 08:53:32;;;;;;;9.00;4.78;;;13.60;99.90;;;;;;6226137;28;20297;-78
2023/05/13 08:56:34;;;;;;;7.75;4.25;;;13.80;99.90;;;;;;6216570;28;20484;-80
2023/05/13 08:59:36;;;;;;;8.90;4.32;;;13.70;99.90;;;;;;6202509;28;20057;-81
2023/05/13 09:02:38;;;;;;;7.07;4.10;;;13.70;99.90;;;;;;6207067;28;20076;-79
2023/05/13 09:05:43;;;;;;;6.60;4.30;;;13.70;99.90;;;;;;6221016;28;20073;-84
2023/05/13 09:08:45;;;;;;;8.15;4.50;;;13.50;99.90;;;;;;6225329;28;20042;-79
2023/05/13 09:11:48;;;;;;;6.60;3.75;;;13.50;99.90;;;;;;6202189;28;20075;-79
2023/05/13 09:14:49;;;;;;;6.60;3.90;;;13.70;99.90;;;;;;6201949;28;20113;-79
2023/05/13 09:17:54;;;;;;;6.40;3.83;;;13.60;99.90;;;;;;6219593;28;20690;-80
2023/05/13 09:20:57;;;;;;;7.85;4.00;;;13.70;99.90;;;;;;6235947;28;20045;-82
2023/05/13 09:24:07;;;;;;;7.68;3.95;;;13.70;99.90;;;;;;6214299;28;20048;-80
2023/05/13 09:27:09;;;;;;;6.00;3.47;;;13.70;99.90;;;;;;6224590;28;20053;-77
2023/05/13 09:30:11;;;;;;;5.80;3.35;;;13.60;99.90;;;;;;6225997;28;20049;-82
2023/05/13 09:33:15;;;;;;;6.97;3.85;;;13.50;99.90;;;;;;6223886;28;20476;-80
2023/05/13 09:36:19;;;;;;;6.13;3.55;;;13.70;99.90;;;;;;6222655;28;20415;-79
2023/05/13 09:39:21;;;;;;;4.72;3.30;;;13.60;99.90;;;;;;6225027;28;20046;-88
2023/05/13 09:42:22;;;;;;;7.00;3.60;;;13.50;99.90;;;;;;6229523;28;20399;-91
2023/05/13 09:45:26;;;;;;;5.55;3.20;;;13.60;99.90;;;;;;6224678;28;20049;-87
2023/05/13 09:48:31;;;;;;;4.93;3.15;;;13.70;99.90;;;;;;6224778;28;20050;-85
2023/05/13 09:51:35;;;;;;;5.20;3.05;;;13.60;99.90;;;;;;6225441;28;20045;-85
2023/05/13 09:54:37;;;;;;;6.10;3.33;;;13.80;99.90;;;;;;6225616;28;20053;-85
2023/05/13 09:57:39;;;;;;;5.35;3.03;;;13.90;99.90;;;;;;6225766;28;20060;-85
2023/05/13 10:00:42;;;;;;;4.40;2.97;;;13.90;99.90;;;;;;6225110;28;20064;-85
2023/05/13 10:03:44;;;;;;;6.32;3.20;;;13.90;99.90;;;;;;6222766;28;20042;-87
2023/05/13 10:06:49;;;;;;;5.68;3.25;;;13.90;99.90;;;;;;6225076;28;20050;-83
2023/05/13 10:09:54;;;;;;;5.63;2.95;;;13.70;99.90;;;;;;6226540;28;20046;-83
2023/05/13 10:12:56;;;;;;;6.10;3.40;;;13.80;99.90;;;;;;6224257;28;20423;-83
2023/05/13 10:15:59;;;;;;;4.97;3.00;;;13.60;99.90;;;;;;6213082;28;20054;-86
2023/05/13 10:19:02;;;;;;;5.37;3.10;;;13.70;99.90;;;;;;6223835;28;20399;-86
2023/05/13 10:22:06;;;;;;;6.00;2.97;;;13.70;99.90;;;;;;6213596;28;20471;-79
2023/05/13 10:25:10;;;;;;;7.43;3.10;;;13.80;99.90;;;;;;6226247;28;20412;-79
2023/05/13 10:28:12;;;;;;;4.35;2.75;;;13.80;99.90;;;;;;6225151;28;20136;-79
2023/05/13 10:31:14;;;;;;;6.03;2.88;;;13.90;99.90;;;;;;6225043;28;20046;-79
2023/05/13 10:34:16;;;;;;;4.72;2.92;;;13.90;99.90;;;;;;6225304;28;20057;-79
2023/05/13 10:37:49;;;;;;;4.90;3.05;;;13.90;99.90;;;;;;6224793;28;20049;-80
2023/05/13 10:41:09;;;;;;;8.43;3.22;;;13.90;99.90;;;;;;6224716;28;20061;-80
2023/05/13 10:44:11;;;;;;;5.28;3.20;;;13.80;99.90;;;;;;6224421;28;20483;-79
2023/05/13 10:47:13;;;;;;;5.45;3.20;;;13.70;99.90;;;;;;6224756;28;20057;-79
2023/05/13 10:50:24;;;;;;;4.50;2.90;;;13.90;99.90;;;;;;6224226;28;20057;-80
2023/05/13 10:53:31;;;;;;;5.80;2.80;;;14.20;99.90;;;;;;6224506;28;20046;-79
2023/05/13 10:56:33;;;;;;;5.13;2.97;;;14.30;99.90;;;;;;6224149;28;20049;-79
2023/05/13 10:59:36;;;;;;;4.70;2.80;;;14.30;99.90;;;;;;6224463;28;20054;-80
2023/05/13 11:02:38;;;;;;;4.05;2.92;;;14.30;99.90;;;;;;6223870;28;20141;-79
2023/05/13 11:05:41;;;;;;;5.57;3.00;;;14.10;99.90;;;;;;6224086;28;20053;-79
2023/05/13 11:08:47;;;;;;;5.15;2.88;;;14.20;99.90;;;;;;6223686;28;20042;-79
2023/05/13 11:11:53;;;;;;;6.25;3.13;;;14.10;99.90;;;;;;6224168;28;20046;-79
2023/05/13 11:14:56;;;;;;;4.25;2.50;;;14.00;99.90;;;;;;6224116;28;20050;-79
2023/05/13 11:17:58;;;;;;;4.00;2.70;;;14.00;99.90;;;;;;6223932;28;20061;-79
2023/05/13 11:21:03;;;;;;;4.32;2.85;;;14.00;99.90;;;;;;6223745;28;20054;-80
2023/05/13 11:24:08;;;;;;;5.82;3.05;;;13.90;99.90;;;;;;6223542;28;20052;-80
2023/05/13 11:27:15;;;;;;;5.07;2.90;;;13.80;99.90;;;;;;6223524;28;20499;-80
2023/05/13 11:30:23;;;;;;;6.75;3.00;;;14.00;99.90;;;;;;6223545;28;20080;-79
2023/05/13 11:34:08;;;;;;;6.28;2.88;;;14.00;99.90;;;;;;6223528;28;20046;-79
2023/05/13 11:37:10;;;;;;;4.28;2.78;;;14.00;99.90;;;;;;6223386;28;20058;-79
2023/05/13 11:40:22;;;;;;;4.15;2.65;;;13.90;99.90;;;;;;6223511;28;20050;-79
2023/05/13 11:43:24;;;;;;;5.55;3.28;;;14.00;99.90;;;;;;6223492;28;20141;-79
2023/05/13 11:46:26;;;;;;;4.40;2.80;;;14.20;99.90;;;;;;6223401;28;20054;-79
2023/05/13 11:49:37;;;;;;;4.25;2.78;;;14.20;99.90;;;;;;6222979;28;20377;-78
2023/05/13 11:52:39;;;;;;;4.18;2.83;;;14.30;99.90;;;;;;6223296;28;20049;-78
2023/05/13 11:55:42;;;;;;;4.15;2.70;;;14.30;99.90;;;;;;6212645;28;20483;-76
2023/05/13 11:58:44;;;;;;;6.57;2.80;;;14.50;99.90;;;;;;6221852;28;20054;-77
2023/05/13 12:01:46;;;;;;;4.80;2.90;;;14.50;99.90;;;;;;6222823;28;20518;-77
2023/05/13 12:04:48;;;;;;;4.50;2.78;;;14.50;99.90;;;;;;6221928;28;20498;-76
2023/05/13 12:07:51;;;;;;;4.72;2.83;;;14.40;99.90;;;;;;6221115;28;20046;-80
2023/05/13 12:10:54;;;;;;;4.90;2.95;;;14.50;99.90;;;;;;6198790;28;20054;-78
2023/05/13 12:13:56;;;;;;;4.40;2.65;;;14.60;99.90;;;;;;6215243;28;20057;-81
2023/05/13 12:16:58;;;;;;;6.03;2.67;;;14.40;99.90;;;;;;6204359;28;20054;-80
2023/05/13 12:20:10;;;;;;;5.05;2.50;;;14.60;99.90;;;;;;6198569;28;20050;-79
2023/05/13 12:23:12;;;;;;;4.00;2.40;;;14.80;99.90;;;;;;6198639;28;20388;-76
2023/05/13 12:26:16;;;;;;;4.27;2.60;;;15.00;99.90;;;;;;6209514;28;20054;-76
2023/05/13 12:29:18;;;;;;;7.13;2.97;;;15.10;99.90;;;;;;6206542;28;20100;-76
2023/05/13 12:32:20;;;;;;;3.53;2.33;;;15.10;99.90;;;;;;6219379;28;20507;-76
2023/05/13 12:35:23;;;;;;;5.15;2.63;;;15.20;99.90;;;;;;6222342;28;20087;-76
2023/05/13 12:38:25;;;;;;;5.05;2.80;;;15.00;99.90;;;;;;6242476;28;20140;-77
2023/05/13 12:41:30;;;;;;;4.78;2.85;;;15.10;99.90;;;;;;6248085;28;20577;-77
2023/05/13 12:44:32;;;;;;;4.38;2.70;;;15.20;99.90;;;;;;6242153;28;20045;-77
2023/05/13 12:47:48;;;;;;;3.85;2.40;;;15.20;99.90;;;;;;6222225;28;20056;-77
2023/05/13 12:50:50;;;;;;;4.03;2.28;;;15.50;99.90;;;;;;6223657;28;20057;-77
2023/05/13 12:53:54;;;;;;;4.60;2.40;;;15.70;99.90;;;;;;6224178;28;20049;-77
2023/05/13 12:56:57;;;;;;;4.63;2.58;;;15.70;99.90;;;;;;6221363;28;20053;-76
2023/05/13 12:59:59;;;;;;;4.93;2.60;;;15.80;99.90;;;;;;6213251;28;20049;-77
2023/05/13 13:03:01;;;;;;;4.45;2.40;;;15.90;99.90;;;;;;6204291;28;20145;-76
2023/05/13 13:06:06;;;;;;;4.68;2.35;;;15.90;99.90;;;;;;6206166;28;20053;-75
2023/05/13 13:09:08;;;;;;;5.60;2.65;;;15.90;99.90;;;;;;6218546;28;20049;-77
2023/05/13 13:12:11;;;;;;;5.30;2.63;;;15.80;99.90;;;;;;6223246;28;20701;-78
2023/05/13 13:15:13;;;;;;;4.95;2.67;;;15.80;99.90;;;;;;6223343;28;20053;-77
2023/05/13 13:18:15;;;;;;;4.40;2.80;;;15.90;99.90;;;;;;6223313;28;20058;-78
2023/05/13 13:21:17;;;;;;;6.53;3.10;;;16.00;99.90;;;;;;6223210;28;20049;-77
2023/05/13 13:24:18;;;;;;;6.97;3.20;;;15.90;99.90;;;;;;6222893;28;20049;-76
2023/05/13 13:27:22;;;;;;;5.95;3.20;;;15.90;99.90;;;;;;6221955;28;20050;-78
2023/05/13 13:30:23;;;;;;;5.25;3.25;;;15.80;99.90;;;;;;6222895;28;20049;-77
2023/05/13 13:33:25;;;;;;;5.68;2.97;;;15.80;99.80;;;;;;6222441;28;20049;-78
2023/05/13 13:36:27;;;;;;;5.03;2.72;;;15.90;99.90;;;;;;6221408;28;20484;-77
2023/05/13 13:39:29;;;;;;;4.45;2.85;;;16.10;99.90;;;;;;6222720;28;20050;-78
2023/05/13 13:42:32;;;;;;;6.78;3.28;;;16.00;99.90;;;;;;6220904;28;20060;-77
2023/05/13 13:45:35;;;;;;;4.45;3.15;;;15.70;99.80;;;;;;6220843;28;20038;-77
2023/05/13 13:48:37;;;;;;;5.28;3.15;;;15.70;99.90;;;;;;6220277;28;20499;-78
2023/05/13 13:51:38;;;;;;;6.35;3.85;;;15.90;99.90;;;;;;6221347;28;20046;-78
2023/05/13 13:54:40;;;;;;;6.72;3.42;;;16.20;99.90;;;;;;6221984;28;20050;-78
2023/05/13 13:57:43;;;;;;;4.85;3.00;;;16.40;99.90;;;;;;6222306;28;20053;-78
2023/05/13 14:00:45;;;;;;;4.50;2.92;;;16.40;99.70;;;;;;6222072;28;20054;-77
2023/05/13 14:03:50;;;;;;;5.13;3.45;;;16.40;99.20;;;;;;6214097;28;20046;-77
2023/05/13 14:06:52;;;;;;;6.82;3.38;;;16.00;99.40;;;;;;6218944;28;20495;-77
2023/05/13 14:09:54;;;;;;;6.03;3.30;;;16.20;99.50;;;;;;6197807;28;20046;-77
2023/05/13 14:12:57;;;;;;;5.10;3.47;;;16.20;99.40;;;;;;6197215;28;20507;-77
2023/05/13 14:15:59;;;;;;;4.68;3.00;;;16.20;99.20;;;;;;6205416;28;20050;-77
2023/05/13 14:19:01;;;;;;;6.22;3.45;;;16.40;99.50;;;;;;6203468;28;20058;-77
2023/05/13 14:22:02;;;;;;;5.30;3.40;;;16.30;99.40;;;;;;6220870;28;20038;-77
2023/05/13 14:25:05;;;;;;;6.40;3.40;;;16.30;99.50;;;;;;6214534;28;20080;-77
2023/05/13 14:28:09;;;;;;;6.75;3.50;;;16.50;99.30;;;;;;6220914;28;20061;-77
2023/05/13 14:31:11;;;;;;;6.88;4.18;;;16.90;98.70;;;;;;6213069;28;20145;-77
2023/05/13 14:34:13;;;;;;;7.63;3.65;;;16.90;98.30;;;;;;6197016;28;20047;-77
2023/05/13 14:37:14;;;;;;;5.35;3.60;;;17.30;98.20;;;;;;6211684;28;20049;-78
2023/05/13 14:40:16;;;;;;;7.03;3.70;;;17.50;97.60;;;;;;6197269;28;20046;-78
2023/05/13 14:43:19;;;;;;;4.72;3.28;;;17.50;97.50;;;;;;6195286;28;20061;-78
2023/05/13 14:46:22;;;;;;;6.53;4.28;;;16.90;97.50;;;;;;6213522;28;20057;-78
2023/05/13 14:49:24;;;;;;;6.90;3.92;;;16.90;97.90;;;;;;6220695;28;20498;-78
2023/05/13 14:52:25;;;;;;;6.63;3.42;;;17.00;98.10;;;;;;6219205;28;20143;-77
2023/05/13 14:55:27;;;;;;;5.30;3.85;;;16.60;98.10;;;;;;6219851;28;20053;-77
2023/05/13 14:58:31;;;;;;;5.53;3.60;;;16.60;98.20;;;;;;6216689;28;20085;-77
2023/05/13 15:01:34;;;;;;;7.45;3.85;;;16.70;98.60;;;;;;6216416;28;20061;-77
2023/05/13 15:04:35;;;;;;;6.30;4.03;;;16.10;98.60;;;;;;6220713;28;20054;-77
2023/05/13 15:07:37;;;;;;;6.68;4.03;;;16.10;98.80;;;;;;6207524;28;20065;-77
2023/05/13 15:10:39;;;;;;;5.82;3.78;;;16.00;98.90;;;;;;6217521;28;20757;-75
2023/05/13 15:13:42;;;;;;;6.63;4.07;;;15.80;99.00;;;;;;6220182;28;20054;-76
2023/05/13 15:16:44;;;;;;;5.47;3.95;;;15.90;99.30;;;;;;6220496;28;20050;-77
2023/05/13 15:19:46;;;;;;;8.13;4.30;;;16.00;99.10;;;;;;6219911;28;20181;-78
2023/05/13 15:22:48;;;;;;;6.18;4.10;;;15.90;99.40;;;;;;6220135;28;20061;-77
2023/05/13 15:25:50;;;;;;;7.30;4.30;;;16.10;99.50;;;;;;6220135;28;20050;-78
2023/05/13 15:28:53;;;;;;;6.03;4.07;;;16.00;99.80;;;;;;6220613;28;20071;-76
2023/05/13 15:31:55;;;;;;;6.60;4.20;;;16.10;99.80;;;;;;6218886;28;20050;-75
2023/05/13 15:34:57;;;;;;;6.18;4.10;;;16.20;99.90;;;;;;6220605;28;20484;-75
2023/05/13 15:37:59;;;;;;;6.72;4.00;;;16.20;99.50;;;;;;6219998;28;20057;-78
2023/05/13 15:41:01;;;;;;;6.80;4.00;;;16.30;99.20;;;;;;6219017;28;20054;-79
2023/05/13 15:44:05;;;;;;;7.07;3.90;;;16.30;99.50;;;;;;6218520;28;20062;-77
2023/05/13 15:47:07;;;;;;;5.75;3.50;;;16.10;99.80;;;;;;6220566;28;20054;-77
2023/05/13 15:50:10;;;;;;;7.20;3.72;;;16.20;99.80;;;;;;6218346;28;20423;-77
2023/05/13 15:53:12;;;;;;;6.32;3.40;;;16.30;99.40;;;;;;6220418;28;20057;-77
2023/05/13 15:56:14;;;;;;;7.43;3.70;;;16.30;99.40;;;;;;6220247;28;20053;-76
2023/05/13 15:59:17;;;;;;;6.32;3.60;;;16.40;99.50;;;;;;6218476;28;20050;-77
2023/05/13 16:02:19;;;;;;;5.57;3.40;;;16.40;99.50;;;;;;6219180;28;20061;-75
2023/05/13 16:05:21;;;;;;;5.43;3.42;;;16.40;99.90;;;;;;6220082;28;20050;-76
2023/05/13 16:08:23;;;;;;;5.15;3.33;;;16.40;99.60;;;;;;6218425;28;20050;-77
2023/05/13 16:11:24;;;;;;;6.55;3.50;;;16.40;99.40;;;;;;6219682;28;20115;-76
2023/05/13 16:14:28;;;;;;;8.60;3.55;;;16.40;99.00;;;;;;6220696;28;20505;-77
2023/05/13 16:17:30;;;;;;;6.03;3.53;;;16.40;99.20;;;;;;6224815;28;20085;-77
2023/05/13 16:20:32;;;;;;;5.90;3.63;;;16.30;99.50;;;;;;6220221;28;20073;-76
2023/05/13 16:23:34;;;;;;;4.82;3.15;;;16.20;99.80;;;;;;6224201;28;20099;-76
2023/05/13 16:26:36;;;;;;;5.63;3.50;;;16.10;99.70;;;;;;6223853;28;20136;-76
2023/05/13 16:29:40;;;;;;;6.60;3.85;;;16.20;99.80;;;;;;6222849;28;20058;-77
2023/05/13 16:32:42;;;;;;;6.38;3.38;;;16.20;99.60;;;;;;6224206;28;20060;-76
2023/05/13 16:35:44;;;;;;;5.47;3.85;;;16.20;99.60;;;;;;6217283;28;20060;-77
2023/05/13 16:38:46;;;;;;;6.00;3.72;;;16.20;99.60;;;;;;6222975;28;20061;-77
2023/05/13 16:41:48;;;;;;;4.45;3.35;;;16.20;99.40;;;;;;6214453;28;20049;-76
2023/05/13 16:44:52;;;;;;;6.50;3.50;;;16.30;99.60;;;;;;6222092;28;20050;-76
2023/05/13 16:47:54;;;;;;;5.47;3.35;;;16.20;99.60;;;;;;6224015;28;20064;-77
2023/05/13 16:50:56;;;;;;;5.55;3.38;;;16.10;99.90;;;;;;6222149;28;20589;-77
2023/05/13 16:53:58;;;;;;;7.35;3.40;;;15.90;99.70;;;;;;6222383;28;20050;-75
2023/05/13 16:57:00;;;;;;;6.80;3.83;;;15.90;99.90;;;;;;6199307;28;20058;-76
2023/05/13 17:00:04;;;;;;;6.95;3.72;;;16.00;99.90;;;;;;6211020;28;20057;-76
2023/05/13 17:03:06;;;;;;;5.07;3.58;;;15.90;99.90;;;;;;6222375;28;20089;-76
2023/05/13 17:06:08;;;;;;;4.40;3.17;;;15.90;99.90;;;;;;6221575;28;20061;-75
2023/05/13 17:09:10;;;;;;;5.82;3.45;;;15.90;99.90;;;;;;6214539;28;20050;-76
2023/05/13 17:12:12;;;;;;;5.55;3.20;;;15.90;99.90;;;;;;6222944;28;20159;-75
2023/05/13 17:15:15;;;;;;;4.72;3.25;;;16.00;99.90;;;;;;6221008;28;20053;-75
2023/05/13 17:18:17;;;;;;;5.65;3.28;;;16.00;99.90;;;;;;6214312;28;20053;-76
2023/05/13 17:21:19;;;;;;;5.07;3.20;;;16.00;99.90;;;;;;6218763;28;20045;-74
2023/05/13 17:24:21;;;;;;;5.13;3.35;;;16.00;99.90;;;;;;6219055;28;20049;-76
2023/05/13 17:27:23;;;;;;;5.90;3.30;;;15.80;99.90;;;;;;6223036;28;20054;-75
2023/05/13 17:30:26;;;;;;;5.53;3.70;;;15.90;99.90;;;;;;6222798;28;20400;-76
2023/05/13 17:33:28;;;;;;;5.82;4.00;;;15.70;99.90;;;;;;6219364;28;20053;-77
2023/05/13 17:36:31;;;;;;;6.30;3.75;;;15.70;99.90;;;;;;6218581;28;20052;-77
2023/05/13 17:39:33;;;;;;;5.93;4.30;;;15.60;99.90;;;;;;6213407;28;20511;-77
2023/05/13 17:42:35;;;;;;;6.80;3.88;;;15.50;99.90;;;;;;6219935;28;20054;-76
2023/05/13 17:45:38;;;;;;;7.63;3.85;;;15.40;99.90;;;;;;6215507;28;20046;-77
2023/05/13 17:48:40;;;;;;;5.72;3.83;;;15.50;99.90;;;;;;6222075;28;20053;-76
2023/05/13 17:51:41;;;;;;;6.80;4.20;;;15.60;99.90;;;;;;6213036;28;20051;-76
2023/05/13 17:54:43;;;;;;;6.60;4.18;;;15.60;99.90;;;;;;6219039;28;20514;-76
2023/05/13 17:57:45;;;;;;;5.75;3.67;;;15.50;99.90;;;;;;6216741;28;20065;-76
2023/05/13 18:00:49;;;;;;;6.20;4.13;;;15.60;99.90;;;;;;6221774;28;20058;-76
2023/05/13 18:03:51;;;;;;;5.78;4.20;;;15.50;99.90;;;;;;6220814;28;20100;-76
2023/05/13 18:06:53;;;;;;;7.00;4.30;;;15.50;99.90;;;;;;6217326;28;20411;-76
2023/05/13 18:09:55;;;;;;;6.57;3.88;;;15.30;99.90;;;;;;6209156;28;20046;-76
2023/05/13 18:12:57;;;;;;;5.90;4.00;;;15.30;99.90;;;;;;6213941;28;20661;-77
2023/05/13 18:16:00;;;;;;;8.25;4.55;;;15.10;99.90;;;;;;6220978;28;20046;-77
2023/05/13 18:19:02;;;;;;;7.38;4.45;;;15.10;99.90;;;;;;6210375;28;20072;-77
2023/05/13 18:22:07;;;;;;;5.25;3.75;;;15.10;99.90;;;;;;6221507;28;20054;-77
2023/05/13 18:25:10;;;;;;;7.05;4.00;;;15.30;99.90;;;;;;6223604;28;20046;-78
2023/05/13 18:28:12;;;;;;;8.18;4.55;;;15.30;99.90;;;;;;6220482;28;20046;-77
2023/05/13 18:31:15;;;;;;;5.70;3.72;;;15.40;99.90;;;;;;6221224;28;20045;-77
2023/05/13 18:34:17;;;;;;;8.05;4.50;;;15.30;99.90;;;;;;6203354;28;20045;-76
2023/05/13 18:37:19;;;;;;;6.60;4.50;;;15.10;99.90;;;;;;6218347;28;20065;-76
2023/05/13 18:40:21;;;;;;;6.28;4.00;;;15.20;99.90;;;;;;6221145;28;20510;-76
2023/05/13 18:43:23;;;;;;;6.53;4.07;;;15.20;99.90;;;;;;6219326;28;20053;-77
2023/05/13 18:46:26;;;;;;;6.30;3.80;;;15.30;99.90;;;;;;6218162;28;20478;-76
2023/05/13 18:49:28;;;;;;;6.13;3.92;;;15.30;99.90;;;;;;6216510;28;20060;-76
2023/05/13 18:52:30;;;;;;;10.23;4.45;;;15.30;99.90;;;;;;6215861;28;20065;-77
2023/05/13 18:55:31;;;;;;;7.70;4.50;;;15.30;99.90;;;;;;6217540;28;20045;-77
2023/05/13 18:58:33;;;;;;;7.65;4.85;;;15.30;99.90;;;;;;6218020;28;20072;-77
2023/05/13 19:01:36;;;;;;;6.82;4.50;;;15.30;99.90;;;;;;6217196;28;20054;-78
2023/05/13 19:04:39;;;;;;;7.90;4.40;;;15.20;99.90;;;;;;6214414;28;20053;-80
2023/05/13 19:07:41;;;;;;;7.13;4.57;;;15.30;99.90;;;;;;6210204;28;20176;-79
2023/05/13 19:10:43;;;;;;;7.80;4.57;;;15.20;99.90;;;;;;6217796;28;20064;-80
2023/05/13 19:13:45;;;;;;;6.13;4.18;;;15.20;99.90;;;;;;6217386;28;20057;-79
2023/05/13 19:16:49;;;;;;;6.32;4.65;;;15.20;99.90;;;;;;6217393;28;20081;-81
2023/05/13 19:19:51;;;;;;;6.85;4.70;;;15.20;99.90;;;;;;6217992;28;20057;-80
2023/05/13 19:22:53;;;;;;;8.05;4.70;;;15.20;99.90;;;;;;6217588;28;20046;-81
2023/05/13 19:25:55;;;;;;;6.72;4.72;;;15.10;99.90;;;;;;6217365;28;20053;-81
2023/05/13 19:28:56;;;;;;;7.95;4.70;;;15.20;99.90;;;;;;6217737;28;20045;-79
2023/05/13 19:32:00;;;;;;;8.23;5.53;;;15.20;99.90;;;;;;6211619;28;20089;-72
2023/05/13 19:35:02;;;;;;;8.95;5.30;;;15.20;99.90;;;;;;6192915;28;20475;-72
2023/05/13 19:38:04;;;;;;;8.60;5.80;;;15.20;99.90;;;;;;6192287;28;20500;-72
2023/05/13 19:41:06;;;;;;;8.38;5.00;;;15.30;99.90;;;;;;6197064;28;20594;-79
2023/05/13 19:44:08;;;;;;;6.40;4.18;;;15.30;99.90;;;;;;6215473;28;20063;-78
2023/05/13 19:47:11;;;;;;;8.45;4.18;;;15.20;99.90;;;;;;6217647;28;20053;-82
2023/05/13 19:50:14;;;;;;;11.00;7.53;;;15.10;99.90;;;;;;6223643;28;20157;-82
2023/05/13 19:53:16;;;;;;;8.13;6.00;;;15.00;99.90;;;;;;6221599;28;20491;-79
2023/05/13 19:56:17;;;;;;;7.25;5.18;;;14.90;99.90;;;;;;6222227;28;20052;-79
2023/05/13 19:59:20;;;;;;;7.32;4.93;;;14.90;99.90;;;;;;6220488;28;20057;-80
2023/05/13 20:02:23;;;;;;;8.07;4.72;;;14.90;99.90;;;;;;6213788;28;20668;-80
2023/05/13 20:05:25;;;;;;;6.18;4.55;;;14.90;99.90;;;;;;6213642;28;20050;-80
2023/05/13 20:08:28;;;;;;;6.47;4.30;;;14.80;99.90;;;;;;6213703;28;20060;-80
2023/05/13 20:11:31;;;;;;;6.15;4.35;;;14.80;99.90;;;;;;6221973;28;20054;-79
2023/05/13 20:14:43;;;;;;;8.55;4.60;;;14.70;99.90;;;;;;6221019;28;20064;-80
2023/05/13 20:17:47;;;;;;;6.82;4.22;;;14.60;99.90;;;;;;6222100;28;20054;-79
2023/05/13 20:20:48;;;;;;;7.68;4.50;;;14.50;99.90;;;;;;6223655;28;20050;-79
2023/05/13 20:23:50;;;;;;;7.55;4.95;;;14.50;99.90;;;;;;6221339;28;20057;-80
2023/05/13 20:26:52;;;;;;;6.88;4.53;;;14.50;99.90;;;;;;6221157;28;20060;-79
2023/05/13 20:29:55;;;;;;;8.90;4.47;;;14.40;99.90;;;;;;6221003;28;20400;-79
2023/05/13 20:32:59;;;;;;;7.90;5.53;;;14.30;99.90;;;;;;6221505;28;20057;-79
2023/05/13 20:36:01;;;;;;;;;;;14.20;99.90;;;;;;6214718;28;20516;-80
2023/05/13 20:39:03;;;;;;;7.57;5.30;;;14.10;99.90;;;;;;6207630;28;19932;-78
2023/05/13 20:42:05;;;;;;;9.20;5.38;;;14.00;99.90;;;;;;6211418;28;20057;-80
2023/05/13 20:45:08;;;;;;;6.28;4.97;;;14.00;99.90;;;;;;6219200;28;20427;-78
2023/05/13 20:48:12;;;;;;;7.90;4.95;;;14.00;99.90;;;;;;6207364;28;20499;-76
2023/05/13 20:51:14;;;;;;;8.68;5.43;;;14.00;99.90;;;;;;6208435;28;20078;-74
2023/05/13 20:54:16;;;;;;;9.13;5.15;;;14.00;99.90;;;;;;6208439;28;20054;-76